createdAt,value
2019-03-01T00:02:13.112Z,77.56
2019-03-01T00:05:11.364Z,77.67
2019-03-01T00:08:07.702Z,77.85
2019-03-01T00:10:56.346Z,78.44
2019-03-01T00:13:39.697Z,79.28
2019-03-01T00:16:18.923Z,79.80
2019-03-01T00:30:48.976Z,80.88
2019-03-01T00:33:34.755Z,80.92
2019-03-01T00:36:11.095Z,81.22
2019-03-01T00:39:19.543Z,81.32
2019-03-01T00:41:53.154Z,81.47
2019-03-01T00:44:41.146Z,81.46
2019-03-01T00:47:11.413Z,81.93
2019-03-01T00:49:41.822Z,81.11
2019-03-01T00:52:12.169Z,81.04
2019-03-01T00:54:42.506Z,80.68
2019-03-01T00:57:12.852Z,80.26
2019-03-01T00:59:43.119Z,80.38
2019-03-01T01:02:13.395Z,80.01
2019-03-01T01:04:43.660Z,80.46
2019-03-01T01:07:14.039Z,80.97
2019-03-01T01:12:48.538Z,81.13
2019-03-01T01:15:18.829Z,81.11
2019-03-01T01:17:49.085Z,81.48
2019-03-01T01:20:19.376Z,81.44
2019-03-01T01:22:49.715Z,81.78
2019-03-01T01:25:19.982Z,81.82
2019-03-01T01:27:50.251Z,81.95
2019-03-01T01:30:20.528Z,82.21
2019-03-01T01:32:50.818Z,82.39
2019-03-01T01:35:21.161Z,82.35
2019-03-01T01:37:51.422Z,82.42
2019-03-01T01:40:21.717Z,82.39
2019-03-01T01:42:52.005Z,82.19
2019-03-01T01:45:22.293Z,82.07
2019-03-01T01:47:52.557Z,81.81
2019-03-01T01:50:22.838Z,81.66
2019-03-01T01:52:53.169Z,81.09
2019-03-01T01:55:23.461Z,80.15
2019-03-01T01:57:54.695Z,80.18
2019-03-01T02:00:25.003Z,80.14
2019-03-01T02:02:58.120Z,79.97
2019-03-01T02:05:28.464Z,79.94
2019-03-01T02:07:58.829Z,79.88
2019-03-01T02:10:29.166Z,79.92
2019-03-01T02:12:59.434Z,80.01
2019-03-01T02:15:29.724Z,79.94
2019-03-01T02:18:00.065Z,80.11
2019-03-01T02:20:30.385Z,80.54
2019-03-01T02:23:00.739Z,80.83
2019-03-01T02:25:31.156Z,81.07
2019-03-01T02:28:01.705Z,81.11
2019-03-01T02:30:37.374Z,81.56
2019-03-01T02:33:07.749Z,81.30
2019-03-01T02:35:38.131Z,82.13
2019-03-01T02:38:08.494Z,80.99
2019-03-01T02:40:38.787Z,81.33
2019-03-01T02:43:10.548Z,81.09
2019-03-01T02:45:40.845Z,80.96
2019-03-01T02:48:11.124Z,81.33
2019-03-01T02:50:41.406Z,81.51
2019-03-01T02:53:11.742Z,81.74
2019-03-01T02:55:42.030Z,81.90
2019-03-01T02:58:12.326Z,81.76
2019-03-01T03:00:42.577Z,81.76
2019-03-01T03:03:12.845Z,81.93
2019-03-01T03:06:00.064Z,82.03
2019-03-01T03:08:30.407Z,82.15
2019-03-01T03:11:00.702Z,81.98
2019-03-01T03:13:31.041Z,81.77
2019-03-01T03:16:01.327Z,81.58
2019-03-01T03:18:31.880Z,81.44
2019-03-01T03:21:04.908Z,81.43
2019-03-01T03:23:35.384Z,81.61
2019-03-01T03:26:05.759Z,81.60
2019-03-01T03:28:36.099Z,81.69
2019-03-01T03:31:06.445Z,81.68
2019-03-01T03:33:36.711Z,81.87
2019-03-01T03:36:07.051Z,81.94
2019-03-01T03:38:37.325Z,82.16
2019-03-01T03:41:07.621Z,82.10
2019-03-01T03:43:38.851Z,82.12
2019-03-01T03:46:09.143Z,82.08
2019-03-01T03:48:39.432Z,82.19
2019-03-01T03:51:09.775Z,82.08
2019-03-01T03:53:40.075Z,82.14
2019-03-01T03:56:10.427Z,82.15
2019-03-01T03:58:40.709Z,82.22
2019-03-01T04:01:10.993Z,82.13
2019-03-01T04:03:41.357Z,82.30
2019-03-01T04:06:11.608Z,82.30
2019-03-01T04:08:41.896Z,82.33
2019-03-01T04:11:12.172Z,82.37
2019-03-01T04:13:42.457Z,82.24
2019-03-01T04:16:12.822Z,82.16
2019-03-01T04:18:43.083Z,82.03
2019-03-01T04:21:13.359Z,82.12
2019-03-01T04:23:43.639Z,82.23
2019-03-01T04:26:13.895Z,82.20
2019-03-01T04:28:44.745Z,82.22
2019-03-01T04:31:15.028Z,82.21
2019-03-01T04:33:45.340Z,82.19
2019-03-01T04:36:15.905Z,82.01
2019-03-01T04:38:46.191Z,81.74
2019-03-01T04:41:16.456Z,81.43
2019-03-01T04:43:47.514Z,81.38
2019-03-01T04:46:18.016Z,81.52
2019-03-01T04:48:48.251Z,81.33
2019-03-01T04:51:18.579Z,80.97
2019-03-01T04:53:48.930Z,80.99
2019-03-01T04:56:19.168Z,80.87
2019-03-01T04:58:49.454Z,80.93
2019-03-01T05:01:19.913Z,80.96
2019-03-01T05:03:50.236Z,80.86
2019-03-01T05:06:22.097Z,80.83
2019-03-01T05:08:52.486Z,80.75
2019-03-01T05:11:22.764Z,80.77
2019-03-01T05:13:53.029Z,80.28
2019-03-01T05:16:23.371Z,80.09
2019-03-01T05:18:53.747Z,80.02
2019-03-01T05:21:24.084Z,79.99
2019-03-01T05:23:54.382Z,79.86
2019-03-01T05:26:24.658Z,79.83
2019-03-01T05:28:54.937Z,79.97
2019-03-01T05:31:25.223Z,79.85
2019-03-01T05:33:55.499Z,79.58
2019-03-01T05:36:25.866Z,79.54
2019-03-01T05:38:56.134Z,78.96
2019-03-01T05:41:26.411Z,79.08
2019-03-01T05:43:57.659Z,79.10
2019-03-01T05:46:27.947Z,79.02
2019-03-01T05:48:58.226Z,78.67
2019-03-01T05:51:28.506Z,78.57
2019-03-01T05:53:58.787Z,78.53
2019-03-01T05:56:29.038Z,78.43
2019-03-01T05:59:08.233Z,78.16
2019-03-01T06:01:41.764Z,77.96
2019-03-01T06:04:18.026Z,77.77
2019-03-01T06:07:03.472Z,77.71
2019-03-01T06:09:52.374Z,77.65
2019-03-01T06:12:54.675Z,77.50
2019-03-01T06:15:40.337Z,77.29
2019-03-01T06:18:30.740Z,77.49
2019-03-01T06:21:23.729Z,77.09
2019-03-01T06:24:09.053Z,76.50
2019-03-01T06:26:57.420Z,76.34
2019-03-01T06:29:36.690Z,76.48
2019-03-01T06:32:28.467Z,76.30
2019-03-01T06:35:23.137Z,76.35
2019-03-01T06:38:20.866Z,76.11
2019-03-01T06:41:21.076Z,76.40
2019-03-01T06:43:54.623Z,75.82
2019-03-01T06:46:33.945Z,75.72
2019-03-01T06:49:08.617Z,76.21
2019-03-01T06:51:39.068Z,76.32
2019-03-01T06:54:09.417Z,75.78
2019-03-01T06:56:40.816Z,75.80
2019-03-01T06:59:11.041Z,75.78
2019-03-01T07:01:41.890Z,75.07
2019-03-01T07:04:14.038Z,74.82
2019-03-01T07:06:44.318Z,74.93
2019-03-01T07:09:14.654Z,74.59
2019-03-01T07:11:44.911Z,75.42
2019-03-01T07:14:15.204Z,74.95
2019-03-01T07:16:45.518Z,75.12
2019-03-01T07:19:15.830Z,74.65
2019-03-01T07:21:46.187Z,74.85
2019-03-01T07:24:16.643Z,74.51
2019-03-01T07:26:46.902Z,74.48
2019-03-01T07:29:17.193Z,73.98
2019-03-01T07:31:47.527Z,74.43
2019-03-01T07:34:17.891Z,73.97
2019-03-01T07:36:48.224Z,73.62
2019-03-01T07:39:18.827Z,73.51
2019-03-01T07:41:49.623Z,73.09
2019-03-01T07:44:21.611Z,72.61
2019-03-01T07:46:54.110Z,72.22
2019-03-01T07:49:25.624Z,73.30
2019-03-01T07:51:55.884Z,73.42
2019-03-01T07:54:26.361Z,72.63
2019-03-01T07:56:56.627Z,72.74
2019-03-01T07:59:27.023Z,73.51
2019-03-01T08:01:57.325Z,73.40
2019-03-01T08:04:29.546Z,73.38
2019-03-01T08:06:59.575Z,73.29
2019-03-01T08:09:30.052Z,73.38
2019-03-01T08:12:03.740Z,73.11
2019-03-01T08:14:32.303Z,73.91
2019-03-01T08:17:02.568Z,72.76
2019-03-01T08:19:32.911Z,72.42
2019-03-01T08:22:03.188Z,72.79
2019-03-01T08:24:33.482Z,73.42
2019-03-01T08:27:06.372Z,73.41
2019-03-01T08:29:37.156Z,72.97
2019-03-01T08:32:07.510Z,72.69
2019-03-01T08:34:37.819Z,72.78
2019-03-01T08:37:08.296Z,72.71
2019-03-01T08:39:39.759Z,72.30
2019-03-01T08:42:10.662Z,71.85
2019-03-01T08:44:40.944Z,71.09
2019-03-01T08:47:12.218Z,71.52
2019-03-01T08:49:42.556Z,71.54
2019-03-01T08:52:12.836Z,71.42
2019-03-01T08:54:43.199Z,70.64
2019-03-01T08:57:13.569Z,69.77
2019-03-01T08:59:44.030Z,70.55
2019-03-01T09:02:14.357Z,71.18
2019-03-01T09:04:50.839Z,70.37
2019-03-01T09:07:16.770Z,70.68
2019-03-01T09:09:50.344Z,69.82
2019-03-01T09:12:20.812Z,69.79
2019-03-01T09:14:51.173Z,70.70
2019-03-01T09:17:21.447Z,70.25
2019-03-01T09:19:52.845Z,69.89
2019-03-01T09:22:24.269Z,69.27
2019-03-01T09:24:55.321Z,69.76
2019-03-01T09:27:26.820Z,69.45
2019-03-01T09:29:59.426Z,69.05
2019-03-01T09:32:33.899Z,69.57
2019-03-01T09:35:21.613Z,68.83
2019-03-01T09:37:53.478Z,66.75
2019-03-01T09:40:25.637Z,65.83
2019-03-01T09:42:55.809Z,66.93
2019-03-01T09:45:35.631Z,65.53
2019-03-01T09:47:59.010Z,63.51
2019-03-01T09:50:31.570Z,63.64
2019-03-01T09:53:01.540Z,64.84
2019-03-01T09:55:34.718Z,65.22
2019-03-01T09:58:03.920Z,64.90
2019-03-01T10:00:40.650Z,65.13
2019-03-01T10:03:11.982Z,59.19
2019-03-01T10:05:42.485Z,59.88
2019-03-01T10:08:12.848Z,62.00
2019-03-01T10:10:43.115Z,62.35
2019-03-01T10:13:13.401Z,61.95
2019-03-01T10:15:43.669Z,60.68
2019-03-01T10:18:14.028Z,60.15
2019-03-01T10:20:44.302Z,53.21
2019-03-01T10:23:14.582Z,55.18
2019-03-01T10:25:44.954Z,53.08
2019-03-01T10:28:15.238Z,53.37
2019-03-01T10:30:45.605Z,52.39
2019-03-01T10:33:15.880Z,53.08
2019-03-01T10:35:46.261Z,49.33
2019-03-01T10:38:16.521Z,48.79
2019-03-01T10:40:46.807Z,49.92
2019-03-01T10:43:18.214Z,52.70
2019-03-01T10:45:48.510Z,56.68
2019-03-01T10:48:18.780Z,57.08
2019-03-01T10:50:49.058Z,59.00
2019-03-01T10:53:19.331Z,58.89
2019-03-01T10:55:49.714Z,57.05
2019-03-01T10:58:19.975Z,57.56
2019-03-01T11:00:50.343Z,56.60
2019-03-01T11:03:20.619Z,55.39
2019-03-01T11:05:52.922Z,57.55
2019-03-01T11:08:23.968Z,59.70
2019-03-01T11:10:54.255Z,55.62
2019-03-01T11:13:24.514Z,54.74
2019-03-01T11:15:54.908Z,52.51
2019-03-01T11:18:26.343Z,53.83
2019-03-01T11:20:56.672Z,53.64
2019-03-01T11:23:27.075Z,53.65
2019-03-01T11:25:57.417Z,56.00
2019-03-01T11:28:27.755Z,54.71
2019-03-01T11:30:58.057Z,55.68
2019-03-01T11:33:28.420Z,56.53
2019-03-01T11:35:58.744Z,58.46
2019-03-01T11:38:29.035Z,57.50
2019-03-01T11:40:59.367Z,52.00
2019-03-01T11:43:29.787Z,51.31
2019-03-01T11:46:01.769Z,55.41
2019-03-01T11:48:33.042Z,54.68
2019-03-01T11:51:03.296Z,54.31
2019-03-01T11:53:33.640Z,55.39
2019-03-01T11:56:03.959Z,53.93
2019-03-01T11:58:34.227Z,52.10
2019-03-01T12:01:04.543Z,49.61
2019-03-01T12:03:34.904Z,48.67
2019-03-01T12:06:05.265Z,52.85
2019-03-01T12:08:35.962Z,54.35
2019-03-01T12:11:06.221Z,55.32
2019-03-01T12:13:36.502Z,56.82
2019-03-01T12:16:06.842Z,58.13
2019-03-01T12:18:37.201Z,58.18
2019-03-01T12:21:07.578Z,59.71
2019-03-01T12:23:45.166Z,58.43
2019-03-01T12:26:15.541Z,58.64
2019-03-01T12:28:45.813Z,58.74
2019-03-01T12:31:16.127Z,58.18
2019-03-01T12:33:46.484Z,56.17
2019-03-01T12:36:16.750Z,56.80
2019-03-01T12:38:47.040Z,57.95
2019-03-01T12:41:36.198Z,58.67
2019-03-01T12:48:32.811Z,58.44
2019-03-01T12:51:03.706Z,57.98
2019-03-01T12:53:36.097Z,57.66
2019-03-01T12:56:10.961Z,57.73
2019-03-01T12:58:41.290Z,57.23
2019-03-01T13:01:17.181Z,56.94
2019-03-01T13:03:44.709Z,57.01
2019-03-01T13:06:15.376Z,56.64
2019-03-01T13:08:47.876Z,56.58
2019-03-01T13:12:11.227Z,56.92
2019-03-01T13:21:45.503Z,58.35
2019-03-01T13:24:27.630Z,56.87
2019-03-01T13:28:08.081Z,56.36
2019-03-01T13:30:38.622Z,57.19
2019-03-01T13:33:08.981Z,55.20
2019-03-01T13:35:39.352Z,55.57
2019-03-01T13:38:09.696Z,55.80
2019-03-01T13:40:39.967Z,55.59
2019-03-01T13:43:10.235Z,55.01
2019-03-01T13:45:40.541Z,53.96
2019-03-01T13:48:10.865Z,54.57
2019-03-01T13:50:42.419Z,54.76
2019-03-01T13:53:12.804Z,54.46
2019-03-01T13:55:43.100Z,55.30
2019-03-01T13:58:13.385Z,55.57
2019-03-01T14:00:45.636Z,56.87
2019-03-01T14:03:15.803Z,57.21
2019-03-01T14:05:46.149Z,57.28
2019-03-01T14:08:16.456Z,56.75
2019-03-01T14:10:46.794Z,55.92
2019-03-01T14:13:17.077Z,56.09
2019-03-01T14:15:47.485Z,56.16
2019-03-01T14:18:18.152Z,55.72
2019-03-01T14:20:48.605Z,55.18
2019-03-01T14:23:25.001Z,56.20
2019-03-01T14:25:55.998Z,57.93
2019-03-01T14:28:50.980Z,57.12
2019-03-01T14:31:21.323Z,57.90
2019-03-01T14:34:48.652Z,57.60
2019-03-01T14:41:25.204Z,58.28
2019-03-01T14:43:58.621Z,56.53
2019-03-01T14:46:27.470Z,56.64
2019-03-01T14:48:57.770Z,58.17
2019-03-01T14:51:31.874Z,57.80
2019-03-01T14:54:02.423Z,58.32
2019-03-01T14:56:35.907Z,57.28
2019-03-01T14:59:12.341Z,58.70
2019-03-01T15:01:59.295Z,58.31
2019-03-01T15:04:30.194Z,59.21
2019-03-01T15:07:22.799Z,59.45
2019-03-01T15:09:57.244Z,59.75
2019-03-01T15:12:26.454Z,59.17
2019-03-01T15:14:56.736Z,60.00
2019-03-01T15:17:27.004Z,60.25
2019-03-01T15:19:57.267Z,59.35
2019-03-01T15:22:27.542Z,59.49
2019-03-01T15:28:53.668Z,60.37
2019-03-01T15:31:22.360Z,60.67
2019-03-01T15:33:52.969Z,61.24
2019-03-01T15:36:23.337Z,60.66
2019-03-01T15:38:53.748Z,60.28
2019-03-01T15:41:24.905Z,61.30
2019-03-01T15:47:23.813Z,61.29
2019-03-01T15:49:54.528Z,61.85
2019-03-01T15:52:26.661Z,64.70
2019-03-01T15:54:57.564Z,66.12
2019-03-01T15:57:28.230Z,66.33
2019-03-01T15:59:58.529Z,66.54
2019-03-01T16:02:28.925Z,66.88
2019-03-01T16:04:59.236Z,67.31
2019-03-01T16:07:32.311Z,67.55
2019-03-01T16:10:02.237Z,67.59
2019-03-01T16:12:36.197Z,67.78
2019-03-01T16:15:10.833Z,67.85
2019-03-01T16:17:50.741Z,69.05
2019-03-01T16:20:21.380Z,68.85
2019-03-01T16:22:54.111Z,69.12
2019-03-01T16:25:23.805Z,69.47
2019-03-01T16:28:02.000Z,69.50
2019-03-01T16:30:32.783Z,69.82
2019-03-01T16:33:03.314Z,69.91
2019-03-01T16:35:33.649Z,69.98
2019-03-01T16:38:04.847Z,70.34
2019-03-01T16:40:35.191Z,70.76
2019-03-01T16:43:06.694Z,71.19
2019-03-01T16:48:40.985Z,71.51
2019-03-01T16:51:11.331Z,71.78
2019-03-01T16:53:42.394Z,71.98
2019-03-01T16:56:12.841Z,72.10
2019-03-01T16:58:47.087Z,72.26
2019-03-01T17:01:17.454Z,72.38
2019-03-01T17:03:49.639Z,72.68
2019-03-01T17:06:20.088Z,72.72
2019-03-01T17:08:50.377Z,73.20
2019-03-01T17:11:20.859Z,73.20
2019-03-01T17:13:51.225Z,73.65
2019-03-01T17:16:23.830Z,74.76
2019-03-01T17:18:54.536Z,75.27
2019-03-01T17:21:24.813Z,75.41
2019-03-01T17:23:55.116Z,75.72
2019-03-01T17:26:26.262Z,76.08
2019-03-01T17:28:59.697Z,76.15
2019-03-01T17:31:29.416Z,76.25
2019-03-01T17:33:59.718Z,76.37
2019-03-01T17:36:31.646Z,76.85
2019-03-01T17:39:02.014Z,76.91
2019-03-01T17:41:34.302Z,76.93
2019-03-01T17:44:08.614Z,76.67
2019-03-01T17:46:39.660Z,76.91
2019-03-01T17:49:10.208Z,76.09
2019-03-01T17:51:41.223Z,77.31
2019-03-01T17:54:12.320Z,77.56
2019-03-01T17:56:42.592Z,76.93
2019-03-01T17:59:13.058Z,78.88
2019-03-01T18:01:43.243Z,78.62
2019-03-01T18:04:13.985Z,80.33
2019-03-01T18:06:44.276Z,79.89
2019-03-01T18:09:16.240Z,80.07
2019-03-01T18:11:46.671Z,78.03
2019-03-01T18:14:17.032Z,77.25
2019-03-01T18:16:47.451Z,76.45
2019-03-01T18:19:17.845Z,76.48
2019-03-01T18:21:50.038Z,76.61
2019-03-01T18:24:20.185Z,78.19
2019-03-01T18:26:51.605Z,78.55
2019-03-01T18:29:21.974Z,79.88
2019-03-01T18:31:53.939Z,80.14
2019-03-01T18:34:24.498Z,80.25
2019-03-01T18:36:54.786Z,79.90
2019-03-01T18:39:25.086Z,79.43
2019-03-01T18:41:55.394Z,78.28
2019-03-01T18:44:26.009Z,79.31
2019-03-01T18:46:57.476Z,79.69
2019-03-01T18:49:27.932Z,79.41
2019-03-01T18:51:58.835Z,79.75
2019-03-01T18:54:30.835Z,80.62
2019-03-01T18:57:03.786Z,80.40
2019-03-01T18:59:33.520Z,80.50
2019-03-01T19:02:05.134Z,81.01
2019-03-01T19:04:35.571Z,82.35
2019-03-01T19:07:06.279Z,81.66
2019-03-01T19:09:36.874Z,81.92
2019-03-01T19:12:12.560Z,81.64
2019-03-01T19:14:44.621Z,83.33
2019-03-01T19:17:16.919Z,83.06
2019-03-01T19:19:47.355Z,83.18
2019-03-01T19:22:18.353Z,82.66
2019-03-01T19:24:50.050Z,83.26
2019-03-01T19:27:22.959Z,82.93
2019-03-01T19:29:53.801Z,81.74
2019-03-01T19:32:26.839Z,81.52
2019-03-01T19:34:59.082Z,83.08
2019-03-01T19:37:30.773Z,82.99
2019-03-01T19:40:01.048Z,83.07
2019-03-01T19:42:33.133Z,82.73
2019-03-01T19:45:07.142Z,82.80
2019-03-01T19:47:37.796Z,82.36
2019-03-01T19:50:17.509Z,82.76
2019-03-01T19:52:50.588Z,83.29
2019-03-01T19:55:25.554Z,83.35
2019-03-01T19:57:55.932Z,83.33
2019-03-01T20:00:34.287Z,83.01
2019-03-01T20:03:09.712Z,82.67
2019-03-01T20:05:41.969Z,83.50
2019-03-01T20:08:13.828Z,83.16
2019-03-01T20:10:44.413Z,83.29
2019-03-01T20:13:16.429Z,83.99
2019-03-01T20:15:50.009Z,83.95
2019-03-01T20:18:21.795Z,83.73
2019-03-01T20:20:52.098Z,83.59
2019-03-01T20:23:22.600Z,83.48
2019-03-01T20:25:53.672Z,83.53
2019-03-01T20:28:24.021Z,83.55
2019-03-01T20:30:54.373Z,83.68
2019-03-01T20:33:27.063Z,83.97
2019-03-01T20:35:57.868Z,83.75
2019-03-01T20:38:28.396Z,83.62
2019-03-01T20:41:03.096Z,83.55
2019-03-01T20:43:31.788Z,83.47
2019-03-01T20:46:03.832Z,83.18
2019-03-01T20:48:34.378Z,82.67
2019-03-01T20:51:06.167Z,82.75
2019-03-01T20:53:36.821Z,83.51
2019-03-01T20:56:09.911Z,83.22
2019-03-01T20:58:41.741Z,82.85
2019-03-01T21:01:12.038Z,82.80
2019-03-01T21:03:42.489Z,82.65
2019-03-01T21:06:13.553Z,82.55
2019-03-01T21:08:43.886Z,82.52
2019-03-01T21:11:14.522Z,82.88
2019-03-01T21:13:45.854Z,83.86
2019-03-01T21:16:16.954Z,83.67
2019-03-01T21:18:47.996Z,83.29
2019-03-01T21:21:18.272Z,83.34
2019-03-01T21:23:51.028Z,83.79
2019-03-01T21:26:26.438Z,84.41
2019-03-01T21:28:57.101Z,84.44
2019-03-01T21:31:35.428Z,84.15
2019-03-01T21:34:05.408Z,84.30
2019-03-01T21:36:35.846Z,84.36
2019-03-01T21:39:07.217Z,84.29
2019-03-01T21:41:37.511Z,84.05
2019-03-01T21:44:10.478Z,83.99
2019-03-01T21:46:43.149Z,84.08
2019-03-01T21:49:13.164Z,83.99
2019-03-01T21:51:43.517Z,84.40
2019-03-01T21:54:16.462Z,84.33
2019-03-01T21:56:56.130Z,84.26
2019-03-01T21:59:19.577Z,84.10
2019-03-01T22:01:50.351Z,83.86
2019-03-01T22:04:22.327Z,83.67
2019-03-01T22:06:56.004Z,83.44
2019-03-01T22:09:26.345Z,83.44
2019-03-01T22:11:56.901Z,83.55
2019-03-01T22:14:27.255Z,83.44
2019-03-01T22:16:57.633Z,83.49
2019-03-01T22:19:30.608Z,83.27
2019-03-01T22:22:00.163Z,83.27
2019-03-01T22:24:30.519Z,82.95
2019-03-01T22:27:01.321Z,82.90
2019-03-01T22:29:31.896Z,82.93
2019-03-01T22:32:02.206Z,82.86
2019-03-01T22:34:32.514Z,82.90
2019-03-01T22:37:03.131Z,82.33
2019-03-01T22:39:33.514Z,81.97
2019-03-01T22:42:03.992Z,81.41
2019-03-01T22:44:36.509Z,80.89
2019-03-01T22:47:07.387Z,80.39
2019-03-01T22:49:37.656Z,80.04
2019-03-01T22:52:07.972Z,80.16
2019-03-01T22:54:38.413Z,80.01
2019-03-01T22:57:12.591Z,79.89
2019-03-01T22:59:43.609Z,79.62
2019-03-01T23:02:15.671Z,78.84
2019-03-01T23:04:47.300Z,78.27
2019-03-01T23:07:17.978Z,76.93
2019-03-01T23:09:49.234Z,76.47
2019-03-01T23:12:21.178Z,75.41
2019-03-01T23:14:51.538Z,75.52
2019-03-01T23:17:23.142Z,74.18
2019-03-01T23:19:53.551Z,72.71
2019-03-01T23:22:23.911Z,72.55
2019-03-01T23:24:54.289Z,73.06
2019-03-01T23:27:24.641Z,73.29
2019-03-01T23:29:55.077Z,73.58
2019-03-01T23:32:25.362Z,73.59
2019-03-01T23:34:55.779Z,75.31
2019-03-01T23:37:26.145Z,75.77
2019-03-01T23:39:57.110Z,76.22
2019-03-01T23:42:31.337Z,76.00
2019-03-01T23:45:01.675Z,75.85
2019-03-01T23:47:34.664Z,75.26
2019-03-01T23:50:05.085Z,74.68
2019-03-01T23:52:35.801Z,74.64
2019-03-01T23:55:07.089Z,74.07
2019-03-01T23:57:37.906Z,72.77
